Time;durP1;ratioP1;P1;durP2;ratioP2;P2;SDS_P1;SDS_P2;PMS_P1;PMS_P2;Temp;Humidity;BMP_temperature;BMP_pressure;BME280_temperature;BME280_humidity;BME280_pressure;Samples;Min_cycle;Max_cycle;Signal;HPM_P1;HPM_P2
2021/06/30 00:02:21;;;;;;;8.18;2.88;;;;;;;23.89;53.05;100792.53;5053613;28;20074;-60
2021/06/30 00:04:46;;;;;;;2.97;1.67;;;;;;;23.92;53.18;100786.63;5054381;28;20028;-60
2021/06/30 00:07:12;;;;;;;3.85;2.45;;;;;;;23.93;53.01;100793.75;5036334;28;20028;-60
2021/06/30 00:09:38;;;;;;;5.50;2.45;;;;;;;23.95;52.45;100794.41;5035936;28;20059;-60
2021/06/30 00:12:04;;;;;;;3.60;2.08;;;;;;;23.94;52.62;100795.44;5054281;28;20075;-60
2021/06/30 00:14:29;;;;;;;3.67;2.65;;;;;;;23.91;52.38;100798.59;5035969;28;20032;-60
2021/06/30 00:16:55;;;;;;;2.65;1.85;;;;;;;23.90;52.56;100794.22;5019711;28;20110;-62
2021/06/30 00:19:21;;;;;;;2.97;2.00;;;;;;;23.88;52.49;100807.25;5053671;28;20037;-61
2021/06/30 00:21:46;;;;;;;3.33;1.80;;;;;;;23.85;52.96;100802.22;5053887;28;20039;-61
2021/06/30 00:24:12;;;;;;;7.68;2.28;;;;;;;23.84;52.63;100815.06;5053853;28;20068;-61
2021/06/30 00:26:38;;;;;;;2.65;1.95;;;;;;;23.80;53.06;100822.03;5053784;28;20025;-61
2021/06/30 00:29:05;;;;;;;5.60;2.05;;;;;;;23.75;53.04;100811.72;5053885;28;20526;-61
2021/06/30 00:31:30;;;;;;;3.63;2.25;;;;;;;23.75;52.77;100821.84;5035630;28;20064;-61
2021/06/30 00:33:56;;;;;;;3.17;1.95;;;;;;;23.70;52.60;100822.47;5032267;28;20088;-61
2021/06/30 00:36:21;;;;;;;3.22;2.15;;;;;;;23.68;53.68;100819.09;5033790;28;20048;-61
2021/06/30 00:38:47;;;;;;;4.38;2.30;;;;;;;23.63;53.62;100813.44;5032366;28;20033;-61
2021/06/30 00:41:12;;;;;;;6.47;2.28;;;;;;;23.66;52.72;100818.50;5032620;28;20041;-62
2021/06/30 00:43:38;;;;;;;4.47;3.00;;;;;;;23.64;53.05;100812.41;5033403;28;20390;-62
2021/06/30 00:46:03;;;;;;;6.68;2.70;;;;;;;23.61;53.47;100814.72;5033449;28;20497;-62
2021/06/30 00:48:28;;;;;;;5.57;2.75;;;;;;;23.56;53.42;100804.41;5033864;28;20032;-62
2021/06/30 00:50:54;;;;;;;5.82;3.38;;;;;;;23.54;52.87;100809.25;5032440;28;20069;-62
2021/06/30 00:53:19;;;;;;;4.55;2.75;;;;;;;23.47;53.49;100799.38;5033647;28;20050;-62
2021/06/30 00:55:50;;;;;;;4.60;3.10;;;;;;;23.44;54.10;100808.03;5033928;28;20425;-62
2021/06/30 00:58:15;;;;;;;5.93;3.17;;;;;;;23.41;53.53;100806.56;5032406;28;20493;-62
2021/06/30 01:00:40;;;;;;;5.50;3.33;;;;;;;23.37;54.19;100793.47;5033309;28;20144;-62
2021/06/30 01:03:08;;;;;;;4.93;3.60;;;;;;;23.33;53.81;100793.06;5033995;28;20049;-61
2021/06/30 01:05:34;;;;;;;9.18;3.67;;;;;;;23.28;53.47;100795.63;5033294;28;20022;-62
2021/06/30 01:07:59;;;;;;;6.68;4.18;;;;;;;23.26;53.65;100797.69;5031979;28;20057;-63
2021/06/30 01:10:24;;;;;;;7.95;4.35;;;;;;;23.25;53.69;100811.59;5032071;28;20097;-64
2021/06/30 01:12:50;;;;;;;7.75;4.70;;;;;;;23.23;54.03;100808.25;5033555;28;20083;-63
2021/06/30 01:15:15;;;;;;;6.32;3.88;;;;;;;23.21;54.05;100805.69;5036281;28;20025;-62
2021/06/30 01:17:44;;;;;;;7.95;4.30;;;;;;;23.20;54.08;100804.84;5037525;28;20037;-62
2021/06/30 01:20:09;;;;;;;6.05;4.05;;;;;;;23.15;54.59;100801.06;5037272;28;20037;-61
2021/06/30 01:22:35;;;;;;;9.18;3.67;;;;;;;23.15;54.04;100796.47;5037321;28;20034;-61
2021/06/30 01:25:00;;;;;;;7.22;4.40;;;;;;;23.14;54.08;100799.41;5037250;28;20029;-61
2021/06/30 01:27:32;;;;;;;8.30;4.57;;;;;;;23.11;54.68;100789.75;5037631;28;20358;-61
2021/06/30 01:29:57;;;;;;;8.98;5.28;;;;;;;23.14;54.63;100794.75;5036103;28;20040;-61
2021/06/30 01:32:24;;;;;;;8.10;4.82;;;;;;;23.13;54.78;100789.53;5037062;28;20033;-61
2021/06/30 01:34:50;;;;;;;8.52;4.93;;;;;;;23.13;54.95;100776.72;5055483;28;20049;-61
2021/06/30 01:37:15;;;;;;;9.10;5.45;;;;;;;23.11;55.18;100767.03;5039112;28;20382;-61
2021/06/30 01:39:40;;;;;;;8.32;5.38;;;;;;;23.13;54.44;100775.88;5056650;28;20104;-61
2021/06/30 01:42:06;;;;;;;9.90;5.40;;;;;;;23.12;54.55;100766.81;5056808;28;20032;-61
2021/06/30 01:44:31;;;;;;;8.23;5.38;;;;;;;23.17;54.48;100771.66;5056710;28;20029;-62
2021/06/30 01:46:56;;;;;;;6.72;3.50;;;;;;;23.17;55.08;100763.47;5056733;28;20029;-61
2021/06/30 01:49:22;;;;;;;8.27;3.88;;;;;;;23.17;54.41;100774.41;5056702;28;20025;-60
2021/06/30 01:51:47;;;;;;;6.53;3.88;;;;;;;23.15;54.82;100768.28;5056593;28;20385;-61
2021/06/30 01:54:15;;;;;;;4.20;3.08;;;;;;;23.16;54.59;100769.97;5056937;28;20036;-63
2021/06/30 01:56:42;;;;;;;2.72;1.98;;;;;;;23.14;54.87;100767.44;5056802;28;20029;-62
2021/06/30 01:59:12;;;;;;;2.35;1.73;;;;;;;23.13;54.71;100767.66;5056626;28;20040;-62
2021/06/30 02:01:38;;;;;;;2.83;1.73;;;;;;;23.12;54.91;100775.00;5038954;28;20041;-62
2021/06/30 02:04:03;;;;;;;2.67;1.65;;;;;;;23.10;54.44;100773.53;5056731;28;20037;-62
2021/06/30 02:06:35;;;;;;;3.05;1.58;;;;;;;23.07;55.14;100776.69;5038799;28;20368;-61
2021/06/30 02:09:01;;;;;;;1.65;1.35;;;;;;;23.03;55.37;100768.06;5056142;28;20481;-61
2021/06/30 02:11:27;;;;;;;0.93;0.80;;;;;;;22.99;54.67;100779.66;5054968;28;20231;-62
2021/06/30 02:13:53;;;;;;;1.70;1.33;;;;;;;22.93;54.12;100772.28;5055985;28;20035;-61
2021/06/30 02:16:20;;;;;;;1.88;1.23;;;;;;;22.93;55.24;100772.28;5054852;28;20021;-61
2021/06/30 02:18:45;;;;;;;0.77;0.77;;;;;;;22.92;55.01;100773.38;5056189;28;20025;-61
2021/06/30 02:21:11;;;;;;;3.03;1.00;;;;;;;22.90;54.10;100775.44;5055073;28;20025;-62
2021/06/30 02:23:36;;;;;;;0.77;0.70;;;;;;;22.88;55.19;100766.63;5056203;28;20028;-62
2021/06/30 02:26:03;;;;;;;1.20;0.63;;;;;;;22.86;54.85;100780.50;5054925;28;20112;-61
2021/06/30 02:28:28;;;;;;;0.45;0.45;;;;;;;22.83;55.01;100769.16;5038158;28;20035;-62
2021/06/30 02:30:54;;;;;;;0.82;0.82;;;;;;;22.80;55.19;100775.88;5038151;28;20033;-61
2021/06/30 02:33:19;;;;;;;1.08;0.70;;;;;;;22.79;55.16;100774.19;5055706;28;20056;-61
2021/06/30 02:35:45;;;;;;;0.98;0.60;;;;;;;22.78;54.93;100777.16;5055866;28;20028;-61
2021/06/30 02:38:12;;;;;;;0.68;0.68;;;;;;;22.76;54.71;100780.06;5055929;28;20024;-61
2021/06/30 02:40:37;;;;;;;0.68;0.68;;;;;;;22.75;54.21;100772.94;5054983;28;20056;-60
2021/06/30 02:43:03;;;;;;;0.47;0.45;;;;;;;22.72;54.93;100772.53;5055806;28;20110;-61
2021/06/30 02:45:29;;;;;;;0.98;0.63;;;;;;;22.68;54.72;100773.97;5055776;28;20041;-61
2021/06/30 02:47:54;;;;;;;2.28;0.80;;;;;;;22.64;54.14;100776.28;5055517;28;20389;-61
2021/06/30 02:50:20;;;;;;;1.17;0.80;;;;;;;22.59;54.23;100776.88;5055505;28;20415;-61
2021/06/30 02:52:49;;;;;;;0.85;0.80;;;;;;;22.57;54.97;100778.13;5055619;28;20040;-61
2021/06/30 02:55:15;;;;;;;2.25;0.90;;;;;;;22.54;54.83;100776.66;5055511;28;20423;-60
2021/06/30 02:57:42;;;;;;;1.00;0.80;;;;;;;22.50;54.75;100778.13;5037417;28;20096;-61
2021/06/30 03:00:14;;;;;;;0.95;0.90;;;;;;;22.48;54.60;100769.31;5055150;28;20033;-61
2021/06/30 03:02:40;;;;;;;0.70;0.70;;;;;;;22.51;54.33;100774.34;5037659;28;20048;-60
2021/06/30 03:05:06;;;;;;;0.82;0.82;;;;;;;22.50;54.99;100778.13;5055136;28;20033;-61
2021/06/30 03:07:32;;;;;;;0.90;0.90;;;;;;;22.51;55.03;100782.53;5055237;28;20037;-59
2021/06/30 03:09:57;;;;;;;1.27;0.82;;;;;;;22.47;54.39;100781.25;5055063;28;20382;-61
2021/06/30 03:12:22;;;;;;;2.28;0.95;;;;;;;22.50;54.70;100785.50;5055395;28;20140;-61
2021/06/30 03:14:48;;;;;;;0.73;0.73;;;;;;;22.46;54.22;100782.34;5055222;28;20029;-62
2021/06/30 03:17:13;;;;;;;0.52;0.52;;;;;;;22.46;54.04;100790.53;5054841;28;20029;-62
2021/06/30 03:19:38;;;;;;;2.15;0.73;;;;;;;22.45;54.76;100794.28;5054958;28;20032;-61
2021/06/30 03:22:04;;;;;;;1.77;0.80;;;;;;;22.45;54.79;100786.09;5053454;28;20052;-62
2021/06/30 03:24:29;;;;;;;1.17;0.40;;;;;;;22.42;54.32;100791.97;5053747;28;20031;-62
2021/06/30 03:26:55;;;;;;;0.73;0.65;;;;;;;22.38;54.15;100790.72;5054858;28;20477;-62
2021/06/30 03:29:20;;;;;;;0.60;0.60;;;;;;;22.40;54.98;100785.03;5054758;28;20078;-61
2021/06/30 03:31:46;;;;;;;0.80;0.60;;;;;;;22.36;54.43;100791.97;5054395;28;20037;-61
2021/06/30 03:34:12;;;;;;;0.90;0.77;;;;;;;22.33;55.07;100800.56;5052142;28;20060;-60
2021/06/30 03:36:37;;;;;;;1.40;0.68;;;;;;;22.33;53.95;100803.31;5052993;28;20128;-61
2021/06/30 03:39:02;;;;;;;1.13;0.85;;;;;;;22.32;54.60;100802.47;5055488;28;20060;-61
2021/06/30 03:41:28;;;;;;;0.60;0.50;;;;;;;22.32;54.68;100799.72;5054674;28;20103;-61
2021/06/30 03:43:53;;;;;;;0.40;0.40;;;;;;;22.34;55.05;100803.09;5054676;28;20107;-61
2021/06/30 03:46:18;;;;;;;0.30;0.30;;;;;;;22.32;54.14;100802.47;5054907;28;20060;-62
2021/06/30 03:48:44;;;;;;;0.25;0.25;;;;;;;22.31;54.58;100806.22;5036620;28;20029;-61
2021/06/30 03:51:09;;;;;;;0.20;0.20;;;;;;;22.35;53.92;100815.69;5053495;28;20369;-59
2021/06/30 03:53:35;;;;;;;0.55;0.35;;;;;;;22.37;53.94;100807.28;5054420;28;20029;-60
2021/06/30 03:56:00;;;;;;;0.57;0.47;;;;;;;22.39;54.90;100816.94;5054599;28;20373;-60
2021/06/30 03:58:26;;;;;;;0.30;0.20;;;;;;;22.41;54.68;100825.81;5054141;28;20393;-60
2021/06/30 04:00:51;;;;;;;0.20;0.17;;;;;;;22.38;54.95;100811.72;5054032;28;20017;-60
2021/06/30 04:03:19;;;;;;;0.22;0.20;;;;;;;22.44;54.20;100825.38;5054535;28;20179;-61
2021/06/30 04:05:45;;;;;;;0.20;0.20;;;;;;;22.44;53.78;100814.47;5036853;28;20041;-60
2021/06/30 04:08:11;;;;;;;0.20;0.20;;;;;;;22.45;54.21;100824.31;5036741;28;20021;-60
2021/06/30 04:10:37;;;;;;;3.17;0.20;;;;;;;22.44;54.80;100830.84;5054273;28;20035;-60
2021/06/30 04:13:03;;;;;;;0.17;0.17;;;;;;;22.46;54.72;100822.44;5036664;28;20108;-61
2021/06/30 04:15:29;;;;;;;0.15;0.10;;;;;;;22.46;54.72;100831.47;5054096;28;20025;-59
2021/06/30 04:17:57;;;;;;;0.20;0.20;;;;;;;22.48;54.15;100825.78;5054310;28;20347;-60
2021/06/30 04:20:23;;;;;;;0.25;0.25;;;;;;;22.48;53.66;100826.63;5054049;28;20025;-61
2021/06/30 04:22:48;;;;;;;0.35;0.35;;;;;;;22.49;54.18;100833.78;5053913;28;20492;-61
2021/06/30 04:25:13;;;;;;;0.52;0.30;;;;;;;22.50;54.38;100835.47;5035906;28;20496;-60
2021/06/30 04:27:39;;;;;;;0.17;0.17;;;;;;;22.49;54.37;100839.25;5054159;28;20025;-61
2021/06/30 04:30:07;;;;;;;0.20;0.20;;;;;;;22.51;54.30;100842.63;5054077;28;20068;-61
2021/06/30 04:32:32;;;;;;;0.20;0.20;;;;;;;22.50;53.59;100835.47;5053855;28;20025;-61
2021/06/30 04:34:58;;;;;;;0.25;0.17;;;;;;;22.53;54.21;100845.97;5053439;28;20502;-62
2021/06/30 04:37:23;;;;;;;0.20;0.20;;;;;;;22.50;53.70;100846.38;5036564;28;20070;-61
2021/06/30 04:39:49;;;;;;;0.55;0.40;;;;;;;22.49;53.65;100841.13;5053758;28;20457;-59
2021/06/30 04:42:14;;;;;;;1.13;0.57;;;;;;;22.50;54.09;100840.91;5052800;28;20032;-60
2021/06/30 04:44:40;;;;;;;0.20;0.20;;;;;;;22.51;53.42;100841.75;5053738;28;20516;-60
2021/06/30 04:47:05;;;;;;;0.40;0.40;;;;;;;22.52;53.36;100844.31;5053435;28;20110;-60
2021/06/30 04:49:30;;;;;;;0.32;0.30;;;;;;;22.53;54.07;100848.69;5057728;28;20056;-60
2021/06/30 04:51:56;;;;;;;1.30;0.20;;;;;;;22.54;53.82;100847.66;5060180;28;20428;-60
2021/06/30 04:54:22;;;;;;;0.25;0.25;;;;;;;22.55;53.85;100849.34;5060239;28;20028;-61
2021/06/30 04:56:48;;;;;;;0.40;0.40;;;;;;;22.51;53.49;100839.88;5060167;28;20047;-60
2021/06/30 04:59:13;;;;;;;0.30;0.30;;;;;;;22.58;53.06;100839.91;5060223;28;20385;-61
2021/06/30 05:01:39;;;;;;;0.43;0.40;;;;;;;22.59;53.83;100841.56;5060261;28;20400;-60
2021/06/30 05:04:04;;;;;;;0.20;0.20;;;;;;;22.63;53.10;100851.03;5060488;28;20032;-60
2021/06/30 05:06:30;;;;;;;1.55;0.30;;;;;;;22.65;53.45;100845.41;5060076;28;20021;-60
2021/06/30 05:08:55;;;;;;;0.30;0.30;;;;;;;22.68;53.08;100850.44;5060430;28;20056;-60
2021/06/30 05:11:21;;;;;;;0.22;0.22;;;;;;;22.71;53.13;100855.50;5059736;28;20041;-60
2021/06/30 05:13:46;;;;;;;0.28;0.20;;;;;;;22.75;52.69;100851.31;5060047;28;20112;-61
2021/06/30 05:16:11;;;;;;;0.35;0.35;;;;;;;22.76;53.41;100852.97;5059668;28;20029;-60
2021/06/30 05:18:37;;;;;;;0.52;0.50;;;;;;;22.79;53.25;100847.94;5059741;28;20069;-60
2021/06/30 05:21:02;;;;;;;0.50;0.50;;;;;;;22.80;53.10;100846.06;5060059;28;20021;-60
2021/06/30 05:23:28;;;;;;;0.30;0.30;;;;;;;22.82;53.46;100857.63;5060015;28;20029;-59
2021/06/30 05:25:53;;;;;;;0.45;0.45;;;;;;;22.84;53.50;100863.69;5060262;28;20111;-60
2021/06/30 05:28:19;;;;;;;0.30;0.30;;;;;;;22.84;52.18;100858.25;5041781;28;20043;-60
2021/06/30 05:30:44;;;;;;;0.65;0.40;;;;;;;22.85;52.38;100854.47;5059560;28;20474;-60
2021/06/30 05:33:09;;;;;;;0.68;0.40;;;;;;;22.83;52.46;100851.13;5059807;28;20176;-60
2021/06/30 05:35:35;;;;;;;0.50;0.43;;;;;;;22.85;52.85;100859.94;5059892;28;20040;-59
2021/06/30 05:38:00;;;;;;;0.60;0.28;;;;;;;22.86;52.93;100862.47;5058345;28;20031;-60
2021/06/30 05:40:25;;;;;;;0.93;0.50;;;;;;;22.85;52.68;100851.72;5059723;28;20028;-60
2021/06/30 05:42:51;;;;;;;1.85;0.30;;;;;;;22.88;52.20;100864.97;5059813;28;20029;-61
2021/06/30 05:45:17;;;;;;;0.40;0.40;;;;;;;22.88;52.67;100854.91;5059816;28;20029;-61
2021/06/30 05:47:44;;;;;;;0.73;0.73;;;;;;;22.89;53.04;100853.84;5059704;28;20492;-61
2021/06/30 05:50:10;;;;;;;0.98;0.40;;;;;;;22.89;52.00;100853.00;5059699;28;20059;-61
2021/06/30 05:52:36;;;;;;;1.00;0.93;;;;;;;22.90;52.92;100863.72;5059804;28;20412;-61
2021/06/30 05:55:03;;;;;;;0.47;0.47;;;;;;;22.89;53.03;100855.75;5041607;28;20025;-61
2021/06/30 05:57:28;;;;;;;0.70;0.43;;;;;;;22.88;52.72;100864.97;5060015;28;20472;-62
2021/06/30 05:59:53;;;;;;;0.63;0.63;;;;;;;22.89;52.95;100866.69;5059239;28;20037;-61
2021/06/30 06:02:19;;;;;;;1.30;0.80;;;;;;;22.90;52.35;100862.88;5056837;28;20436;-61
2021/06/30 06:04:44;;;;;;;0.50;0.50;;;;;;;22.91;52.74;100859.09;5054973;28;20031;-61
2021/06/30 06:07:10;;;;;;;1.00;0.90;;;;;;;22.94;52.24;100875.09;5054849;28;20064;-61
2021/06/30 06:09:35;;;;;;;1.15;1.08;;;;;;;22.94;52.11;100869.63;5056520;28;20033;-60
2021/06/30 06:12:00;;;;;;;0.50;0.50;;;;;;;22.88;52.25;100867.72;5056568;28;20082;-61
2021/06/30 06:14:26;;;;;;;0.85;0.55;;;;;;;22.89;52.27;100856.56;5056025;28;20053;-62
2021/06/30 06:16:51;;;;;;;1.05;0.68;;;;;;;22.91;51.93;100857.22;5056240;28;20033;-61
2021/06/30 06:19:16;;;;;;;1.52;0.65;;;;;;;22.90;52.91;100868.34;5055899;28;20021;-60
2021/06/30 06:21:42;;;;;;;0.70;0.70;;;;;;;22.88;52.52;100865.81;5056141;28;20473;-62
2021/06/30 06:24:08;;;;;;;1.42;0.70;;;;;;;22.87;52.12;100868.75;5055903;28;20032;-61
2021/06/30 06:26:33;;;;;;;2.25;1.00;;;;;;;22.87;52.53;100869.59;5056068;28;20029;-61
2021/06/30 06:28:59;;;;;;;0.88;0.77;;;;;;;22.85;52.68;100876.31;5037860;28;20033;-60
2021/06/30 06:31:27;;;;;;;0.50;0.50;;;;;;;22.84;52.25;100866.44;5054337;28;20067;-60
2021/06/30 06:33:52;;;;;;;0.73;0.52;;;;;;;22.74;52.93;100853.19;5055299;28;20075;-60
2021/06/30 06:36:18;;;;;;;0.95;0.60;;;;;;;22.82;52.09;100868.53;5055887;28;20119;-61
2021/06/30 06:38:45;;;;;;;0.57;0.45;;;;;;;22.79;52.90;100875.25;5055844;28;20081;-61
2021/06/30 06:41:10;;;;;;;1.65;1.02;;;;;;;22.78;53.15;100872.75;5038375;28;20512;-61
2021/06/30 06:43:36;;;;;;;0.80;0.47;;;;;;;22.79;52.59;100866.22;5056043;28;20028;-61
2021/06/30 06:46:02;;;;;;;0.50;0.50;;;;;;;22.82;52.22;100872.13;5055630;28;20031;-61
2021/06/30 06:48:27;;;;;;;0.68;0.50;;;;;;;22.85;52.19;100865.41;5055611;28;20086;-62
2021/06/30 06:50:53;;;;;;;0.43;0.35;;;;;;;22.89;52.89;100877.59;5055460;28;20033;-61
2021/06/30 06:53:18;;;;;;;0.63;0.63;;;;;;;22.96;51.89;100867.50;5055499;28;20558;-61
2021/06/30 06:55:44;;;;;;;1.65;0.60;;;;;;;22.97;52.73;100869.19;5055479;28;20117;-60
2021/06/30 06:58:09;;;;;;;2.80;0.60;;;;;;;23.02;52.23;100874.88;5055469;28;20067;-61
2021/06/30 07:00:35;;;;;;;0.82;0.40;;;;;;;23.06;51.87;100871.50;5055454;28;20045;-60
2021/06/30 07:03:01;;;;;;;1.02;0.60;;;;;;;23.08;52.67;100876.78;5055065;28;20047;-61
2021/06/30 07:05:26;;;;;;;0.55;0.40;;;;;;;23.11;51.77;100870.91;5037579;28;20025;-60
2021/06/30 07:07:51;;;;;;;0.50;0.45;;;;;;;23.16;51.72;100862.91;5055777;28;20407;-60
2021/06/30 07:10:17;;;;;;;0.50;0.50;;;;;;;23.24;52.69;100865.41;5036959;28;20029;-61
2021/06/30 07:12:42;;;;;;;1.45;0.55;;;;;;;23.35;51.85;100867.53;5054570;28;20090;-61
2021/06/30 07:15:09;;;;;;;1.55;0.73;;;;;;;23.45;52.39;100867.13;5037028;28;20032;-61
2021/06/30 07:17:35;;;;;;;0.77;0.47;;;;;;;23.56;51.85;100867.31;5055153;28;20108;-61
2021/06/30 07:20:00;;;;;;;0.57;0.55;;;;;;;23.68;51.39;100878.44;5055055;28;20505;-61
2021/06/30 07:22:25;;;;;;;0.57;0.57;;;;;;;23.75;51.72;100877.41;5055258;28;20032;-61
2021/06/30 07:24:51;;;;;;;0.50;0.50;;;;;;;23.78;51.84;100874.19;5054809;28;20359;-62
2021/06/30 07:27:16;;;;;;;0.60;0.60;;;;;;;23.85;51.61;100878.81;5037515;28;20033;-61
2021/06/30 07:29:42;;;;;;;2.15;0.80;;;;;;;23.90;51.11;100887.25;5054853;28;20028;-61
2021/06/30 07:32:07;;;;;;;1.33;0.93;;;;;;;23.92;51.34;100891.47;5054731;28;20068;-61
2021/06/30 07:34:34;;;;;;;0.68;0.68;;;;;;;23.92;51.85;100885.13;5033280;28;20045;-61
2021/06/30 07:36:59;;;;;;;0.85;0.77;;;;;;;23.97;51.92;100896.28;5033354;28;20033;-61
2021/06/30 07:39:25;;;;;;;0.57;0.57;;;;;;;23.93;51.11;100893.13;5034813;28;20520;-61
2021/06/30 07:41:55;;;;;;;0.77;0.77;;;;;;;23.95;52.11;100904.72;5034722;28;20025;-61
2021/06/30 07:44:20;;;;;;;0.63;0.63;;;;;;;23.94;51.60;100904.91;5034604;28;20079;-60
2021/06/30 07:46:47;;;;;;;1.00;0.60;;;;;;;24.00;51.29;100906.78;5034375;28;20470;-61
2021/06/30 07:49:12;;;;;;;0.50;0.50;;;;;;;24.04;51.89;100911.59;5034276;28;20025;-61
2021/06/30 07:51:38;;;;;;;0.55;0.55;;;;;;;24.11;51.51;100906.16;5033339;28;20031;-61
2021/06/30 07:54:03;;;;;;;2.58;0.80;;;;;;;24.14;50.87;100911.22;5034237;28;20034;-60
2021/06/30 07:56:34;;;;;;;0.90;0.90;;;;;;;24.18;50.72;100915.19;5034515;28;20430;-61
2021/06/30 07:59:10;;;;;;;0.82;0.82;;;;;;;24.20;51.28;100905.69;5034083;28;20022;-61
2021/06/30 08:01:36;;;;;;;0.68;0.68;;;;;;;24.31;50.83;100918.75;5034376;28;20374;-60
2021/06/30 08:04:03;;;;;;;1.08;1.02;;;;;;;24.38;50.43;100913.22;5034283;28;20021;-60
2021/06/30 08:06:28;;;;;;;2.35;1.70;;;;;;;24.44;50.70;100912.34;5034106;28;20083;-60
2021/06/30 08:08:54;;;;;;;2.00;1.20;;;;;;;24.48;50.53;100907.28;5034493;28;20029;-61
2021/06/30 08:11:23;;;;;;;0.73;0.73;;;;;;;24.57;51.07;100912.28;5034766;28;20033;-61
2021/06/30 08:13:48;;;;;;;1.90;0.80;;;;;;;24.56;50.71;100905.13;5034397;28;20049;-60
2021/06/30 08:16:14;;;;;;;1.00;0.80;;;;;;;24.62;50.73;100912.47;5032967;28;20116;-61
2021/06/30 08:18:39;;;;;;;0.70;0.70;;;;;;;24.59;50.26;100918.41;5034072;28;20060;-60
2021/06/30 08:21:04;;;;;;;0.57;0.57;;;;;;;24.57;50.44;100917.75;5033967;28;20018;-60
2021/06/30 08:23:30;;;;;;;0.60;0.60;;;;;;;24.56;50.59;100916.09;5031730;28;20479;-60
2021/06/30 08:25:55;;;;;;;0.80;0.80;;;;;;;24.57;50.92;100917.75;5034247;28;20374;-61
2021/06/30 08:28:24;;;;;;;0.85;0.85;;;;;;;24.51;50.85;100910.41;5033766;28;20029;-60
2021/06/30 08:30:53;;;;;;;0.70;0.70;;;;;;;24.57;50.40;100925.13;5034130;28;20037;-61
2021/06/30 08:33:20;;;;;;;0.93;0.88;;;;;;;24.59;50.52;100920.28;5033290;28;20045;-61
2021/06/30 08:35:46;;;;;;;0.73;0.73;;;;;;;24.59;50.35;100923.88;5053003;28;20052;-60
2021/06/30 08:38:11;;;;;;;0.60;0.60;;;;;;;24.64;50.39;100918.59;5053677;28;20074;-60
2021/06/30 08:40:39;;;;;;;1.83;0.70;;;;;;;24.73;50.26;100917.28;5053676;28;20466;-60
2021/06/30 08:43:06;;;;;;;0.52;0.52;;;;;;;24.86;49.65;100924.59;5053954;28;20051;-60
2021/06/30 08:45:31;;;;;;;0.70;0.70;;;;;;;25.08;49.49;100919.59;5053693;28;20366;-60
2021/06/30 08:47:58;;;;;;;0.70;0.70;;;;;;;25.34;49.61;100913.94;5052154;28;20117;-61
2021/06/30 08:50:24;;;;;;;0.77;0.77;;;;;;;25.59;49.20;100916.69;5053459;28;20060;-61
2021/06/30 08:52:51;;;;;;;0.70;0.70;;;;;;;25.81;48.81;100910.56;5035442;28;20494;-61
2021/06/30 08:55:17;;;;;;;2.78;0.75;;;;;;;25.94;48.89;100904.06;5052096;28;20021;-60
2021/06/30 08:57:46;;;;;;;0.63;0.57;;;;;;;25.94;49.27;100915.91;5053241;28;20435;-60
2021/06/30 09:00:13;;;;;;;0.95;0.60;;;;;;;25.83;49.12;100919.41;5035759;28;20350;-61
2021/06/30 09:02:40;;;;;;;0.50;0.43;;;;;;;25.68;49.58;100910.69;5053517;28;20028;-60
2021/06/30 09:08:00;;;;;;;0.57;0.32;;;;;;;25.49;49.50;100908.94;5035967;28;20041;-60
2021/06/30 09:10:44;;;;;;;0.45;0.30;;;;;;;25.55;49.37;100919.03;5035237;28;20523;-61
2021/06/30 09:13:23;;;;;;;1.25;0.50;;;;;;;25.58;48.83;100915.84;5053326;28;20029;-61
2021/06/30 09:15:59;;;;;;;0.38;0.38;;;;;;;25.57;48.82;100916.94;5053363;28;20028;-60
2021/06/30 09:18:36;;;;;;;2.50;0.80;;;;;;;25.51;49.05;100919.72;5053297;28;20385;-61
2021/06/30 09:21:28;;;;;;;0.52;0.52;;;;;;;25.37;49.03;100913.47;5036569;28;20021;-61
2021/06/30 09:24:11;;;;;;;0.30;0.30;;;;;;;25.17;49.72;100910.91;5053642;28;20473;-61
2021/06/30 09:26:46;;;;;;;0.43;0.43;;;;;;;25.23;49.59;100922.88;5053207;28;20374;-61
2021/06/30 09:29:12;;;;;;;3.75;1.00;;;;;;;25.31;48.97;100925.34;5052932;28;20381;-61
2021/06/30 09:31:42;;;;;;;0.60;0.60;;;;;;;25.43;49.08;100912.59;5052862;28;20040;-60
2021/06/30 09:34:07;;;;;;;1.13;1.02;;;;;;;25.55;49.20;100921.78;5052884;28;20493;-60
2021/06/30 09:36:50;;;;;;;2.53;0.88;;;;;;;25.52;49.22;100927.72;5056623;28;20029;-60
2021/06/30 09:39:15;;;;;;;;;;;;;;;25.59;49.24;100928.50;5057147;28;20386;-61
2021/06/30 09:41:44;;;;;;;0.60;0.60;;;;;;;25.65;49.12;100937.75;5057138;28;19909;-61
2021/06/30 09:44:12;;;;;;;1.98;1.00;;;;;;;25.67;48.67;100928.22;5039856;28;20029;-61
2021/06/30 09:46:40;;;;;;;1.00;1.00;;;;;;;25.68;48.63;100918.09;5056778;28;20139;-61
2021/06/30 09:49:13;;;;;;;1.23;0.60;;;;;;;25.70;49.06;100927.78;5057274;28;20021;-61
2021/06/30 09:51:40;;;;;;;0.77;0.77;;;;;;;25.71;48.82;100921.19;5056560;28;20028;-61
2021/06/30 09:54:18;;;;;;;0.90;0.70;;;;;;;25.76;48.28;100920.53;5038781;28;20116;-61
2021/06/30 09:56:55;;;;;;;0.70;0.70;;;;;;;25.87;48.51;100928.03;5056432;28;20035;-61
2021/06/30 09:59:26;;;;;;;1.02;0.93;;;;;;;25.87;48.25;100917.06;5056195;28;20025;-60
2021/06/30 10:02:03;;;;;;;1.70;1.60;;;;;;;25.79;48.68;100926.44;5039079;28;20016;-61
2021/06/30 10:04:36;;;;;;;2.08;1.35;;;;;;;25.75;48.47;100927.09;5056406;28;20017;-61
2021/06/30 10:07:04;;;;;;;1.58;1.48;;;;;;;25.80;48.36;100930.00;5056141;28;20028;-61
2021/06/30 10:09:30;;;;;;;3.03;2.75;;;;;;;25.91;48.30;100927.34;5056206;28;20481;-61
2021/06/30 10:12:11;;;;;;;1.95;1.83;;;;;;;26.17;48.16;100925.41;5056003;28;20035;-61
2021/06/30 10:14:41;;;;;;;2.78;1.77;;;;;;;26.42;47.69;100928.91;5055351;28;20420;-61
2021/06/30 10:17:08;;;;;;;6.00;2.13;;;;;;;26.39;47.90;100929.38;5054766;28;20021;-61
2021/06/30 10:19:35;;;;;;;1.88;1.15;;;;;;;26.26;47.83;100926.78;5038411;28;20492;-61
2021/06/30 10:22:00;;;;;;;2.65;0.98;;;;;;;26.09;48.66;100932.00;5056099;28;20021;-60
2021/06/30 10:24:26;;;;;;;1.23;1.00;;;;;;;25.96;48.55;100941.22;5038318;28;20021;-61
2021/06/30 10:26:52;;;;;;;1.27;1.17;;;;;;;25.80;48.62;100936.31;5055783;28;20024;-60
2021/06/30 10:29:17;;;;;;;2.40;1.40;;;;;;;25.69;48.63;100939.81;5056084;28;20032;-61
2021/06/30 10:31:45;;;;;;;4.60;1.60;;;;;;;25.62;48.68;100938.19;5037853;28;20366;-61
2021/06/30 10:34:13;;;;;;;1.52;1.42;;;;;;;25.61;48.36;100934.59;5053424;28;20153;-61
2021/06/30 10:36:49;;;;;;;2.42;1.20;;;;;;;25.64;48.37;100936.91;5054668;28;20033;-61
2021/06/30 10:39:17;;;;;;;1.73;1.48;;;;;;;25.78;47.89;100932.97;5055798;28;20071;-62
2021/06/30 10:41:44;;;;;;;1.10;1.00;;;;;;;25.90;47.72;100928.44;5055712;28;20017;-62
2021/06/30 10:44:25;;;;;;;2.22;1.13;;;;;;;26.01;47.96;100930.41;5054161;28;20473;-62
2021/06/30 10:46:53;;;;;;;1.70;1.13;;;;;;;26.15;48.01;100931.13;5055020;28;20021;-61
2021/06/30 10:49:27;;;;;;;1.17;1.08;;;;;;;26.27;47.66;100933.97;5054077;28;20037;-61
2021/06/30 10:51:59;;;;;;;1.23;1.13;;;;;;;26.33;47.46;100942.13;5055506;28;20025;-62
2021/06/30 10:54:33;;;;;;;1.27;1.17;;;;;;;26.54;47.48;100938.91;5037536;28;20036;-61
2021/06/30 10:57:30;;;;;;;1.15;1.10;;;;;;;26.76;47.22;100944.75;5055182;28;20045;-61
2021/06/30 10:59:58;;;;;;;1.55;1.25;;;;;;;26.78;47.41;100950.88;5055432;28;20524;-61
2021/06/30 11:02:24;;;;;;;1.00;0.90;;;;;;;26.68;47.29;100945.06;5053913;28;20108;-61
2021/06/30 11:04:50;;;;;;;1.02;0.80;;;;;;;26.65;47.06;100950.19;5055280;28;20354;-61
2021/06/30 11:07:32;;;;;;;0.95;0.93;;;;;;;26.59;47.38;100946.44;5055021;28;20065;-60
2021/06/30 11:09:57;;;;;;;2.53;0.93;;;;;;;26.58;47.14;100953.84;5055030;28;20051;-61
2021/06/30 11:12:49;;;;;;;1.08;0.98;;;;;;;26.52;47.30;100957.50;5037004;28;20029;-60
2021/06/30 11:15:42;;;;;;;0.85;0.80;;;;;;;26.44;46.78;100955.09;5055124;28;20087;-60
2021/06/30 11:18:10;;;;;;;1.15;1.05;;;;;;;26.34;46.76;100959.44;5054744;28;20035;-61
2021/06/30 11:20:42;;;;;;;0.93;0.80;;;;;;;26.27;46.79;100961.44;5055075;28;20040;-62
2021/06/30 11:23:23;;;;;;;1.30;1.20;;;;;;;26.20;47.16;100969.75;5054994;28;20070;-61
2021/06/30 11:25:50;;;;;;;2.00;1.08;;;;;;;26.13;47.26;100968.91;5037559;28;20402;-61
2021/06/30 11:28:36;;;;;;;0.70;0.70;;;;;;;26.01;47.70;100965.28;5054622;28;20427;-62